sensor_id;sensor_type;location;lat;lon;timestamp;P1;durP1;ratioP1;P2;durP2;ratioP2
30635;SDS011;17400;52.392;9.750;2023-04-15T00:02:18;6.05;;;3.45;;
30635;SDS011;17400;52.392;9.750;2023-04-15T00:04:48;4.80;;;3.10;;
30635;SDS011;17400;52.392;9.750;2023-04-15T00:07:15;5.35;;;3.58;;
30635;SDS011;17400;52.392;9.750;2023-04-15T00:09:43;6.60;;;3.83;;
30635;SDS011;17400;52.392;9.750;2023-04-15T00:12:11;8.48;;;4.00;;
30635;SDS011;17400;52.392;9.750;2023-04-15T00:14:39;5.15;;;3.42;;
30635;SDS011;17400;52.392;9.750;2023-04-15T00:17:07;7.18;;;4.47;;
30635;SDS011;17400;52.392;9.750;2023-04-15T00:19:34;5.60;;;3.47;;
30635;SDS011;17400;52.392;9.750;2023-04-15T00:22:03;8.13;;;3.33;;
30635;SDS011;17400;52.392;9.750;2023-04-15T00:24:31;5.53;;;3.28;;
30635;SDS011;17400;52.392;9.750;2023-04-15T00:26:59;6.13;;;3.50;;
30635;SDS011;17400;52.392;9.750;2023-04-15T00:29:27;6.43;;;3.33;;
30635;SDS011;17400;52.392;9.750;2023-04-15T00:31:55;5.45;;;3.53;;
30635;SDS011;17400;52.392;9.750;2023-04-15T00:34:23;5.85;;;4.32;;
30635;SDS011;17400;52.392;9.750;2023-04-15T00:36:50;6.03;;;3.15;;
30635;SDS011;17400;52.392;9.750;2023-04-15T00:39:21;6.45;;;4.18;;
30635;SDS011;17400;52.392;9.750;2023-04-15T00:41:49;6.25;;;3.90;;
30635;SDS011;17400;52.392;9.750;2023-04-15T00:44:17;6.50;;;3.72;;
30635;SDS011;17400;52.392;9.750;2023-04-15T00:46:45;7.90;;;4.28;;
30635;SDS011;17400;52.392;9.750;2023-04-15T00:49:14;7.13;;;3.67;;
30635;SDS011;17400;52.392;9.750;2023-04-15T00:51:43;5.75;;;3.53;;
30635;SDS011;17400;52.392;9.750;2023-04-15T00:54:11;6.80;;;3.72;;
30635;SDS011;17400;52.392;9.750;2023-04-15T00:56:41;7.63;;;3.78;;
30635;SDS011;17400;52.392;9.750;2023-04-15T00:59:11;9.55;;;4.53;;
30635;SDS011;17400;52.392;9.750;2023-04-15T01:01:40;7.28;;;4.75;;
30635;SDS011;17400;52.392;9.750;2023-04-15T01:04:10;6.82;;;3.63;;
30635;SDS011;17400;52.392;9.750;2023-04-15T01:06:38;7.18;;;3.95;;
30635;SDS011;17400;52.392;9.750;2023-04-15T01:09:06;8.50;;;4.93;;
30635;SDS011;17400;52.392;9.750;2023-04-15T01:11:34;8.60;;;5.03;;
30635;SDS011;17400;52.392;9.750;2023-04-15T01:14:03;6.50;;;4.45;;
30635;SDS011;17400;52.392;9.750;2023-04-15T01:16:31;10.23;;;5.60;;
30635;SDS011;17400;52.392;9.750;2023-04-15T01:18:59;7.55;;;4.80;;
30635;SDS011;17400;52.392;9.750;2023-04-15T01:21:27;8.25;;;5.45;;
30635;SDS011;17400;52.392;9.750;2023-04-15T01:23:55;10.05;;;6.22;;
30635;SDS011;17400;52.392;9.750;2023-04-15T01:26:25;9.98;;;6.18;;
30635;SDS011;17400;52.392;9.750;2023-04-15T01:28:53;9.93;;;5.97;;
30635;SDS011;17400;52.392;9.750;2023-04-15T01:31:21;9.95;;;5.22;;
30635;SDS011;17400;52.392;9.750;2023-04-15T01:33:49;9.05;;;5.30;;
30635;SDS011;17400;52.392;9.750;2023-04-15T01:36:17;9.88;;;5.40;;
30635;SDS011;17400;52.392;9.750;2023-04-15T01:38:45;9.10;;;5.80;;
30635;SDS011;17400;52.392;9.750;2023-04-15T01:41:13;9.05;;;4.88;;
30635;SDS011;17400;52.392;9.750;2023-04-15T01:43:43;9.77;;;5.13;;
30635;SDS011;17400;52.392;9.750;2023-04-15T01:46:11;9.55;;;5.25;;
30635;SDS011;17400;52.392;9.750;2023-04-15T01:48:38;11.00;;;6.90;;
30635;SDS011;17400;52.392;9.750;2023-04-15T01:51:06;11.90;;;5.90;;
30635;SDS011;17400;52.392;9.750;2023-04-15T01:53:34;10.30;;;6.20;;
30635;SDS011;17400;52.392;9.750;2023-04-15T01:56:02;12.48;;;6.57;;
30635;SDS011;17400;52.392;9.750;2023-04-15T01:58:31;9.63;;;5.85;;
30635;SDS011;17400;52.392;9.750;2023-04-15T02:00:59;9.52;;;6.55;;
30635;SDS011;17400;52.392;9.750;2023-04-15T02:03:28;9.00;;;5.95;;
30635;SDS011;17400;52.392;9.750;2023-04-15T02:05:56;9.82;;;5.63;;
30635;SDS011;17400;52.392;9.750;2023-04-15T02:08:24;10.55;;;6.07;;
30635;SDS011;17400;52.392;9.750;2023-04-15T02:10:52;12.15;;;6.03;;
30635;SDS011;17400;52.392;9.750;2023-04-15T02:13:20;11.93;;;6.47;;
30635;SDS011;17400;52.392;9.750;2023-04-15T02:15:48;11.63;;;6.07;;
30635;SDS011;17400;52.392;9.750;2023-04-15T02:18:19;9.77;;;5.55;;
30635;SDS011;17400;52.392;9.750;2023-04-15T02:20:49;9.38;;;5.88;;
30635;SDS011;17400;52.392;9.750;2023-04-15T02:23:17;13.02;;;7.30;;
30635;SDS011;17400;52.392;9.750;2023-04-15T02:25:45;12.90;;;6.90;;
30635;SDS011;17400;52.392;9.750;2023-04-15T02:28:19;11.23;;;6.70;;
30635;SDS011;17400;52.392;9.750;2023-04-15T02:30:47;14.32;;;7.90;;
30635;SDS011;17400;52.392;9.750;2023-04-15T02:33:19;11.07;;;7.13;;
30635;SDS011;17400;52.392;9.750;2023-04-15T02:35:47;13.43;;;6.63;;
30635;SDS011;17400;52.392;9.750;2023-04-15T02:38:15;12.20;;;6.80;;
30635;SDS011;17400;52.392;9.750;2023-04-15T02:40:43;11.95;;;6.57;;
30635;SDS011;17400;52.392;9.750;2023-04-15T02:43:11;13.52;;;7.22;;
30635;SDS011;17400;52.392;9.750;2023-04-15T02:45:41;12.40;;;6.78;;
30635;SDS011;17400;52.392;9.750;2023-04-15T02:48:09;11.15;;;6.60;;
30635;SDS011;17400;52.392;9.750;2023-04-15T02:50:38;14.13;;;7.82;;
30635;SDS011;17400;52.392;9.750;2023-04-15T02:53:06;15.30;;;6.75;;
30635;SDS011;17400;52.392;9.750;2023-04-15T02:55:34;12.48;;;6.43;;
30635;SDS011;17400;52.392;9.750;2023-04-15T02:58:02;13.70;;;7.90;;
30635;SDS011;17400;52.392;9.750;2023-04-15T03:00:30;13.18;;;7.38;;
30635;SDS011;17400;52.392;9.750;2023-04-15T03:02:59;12.43;;;7.32;;
30635;SDS011;17400;52.392;9.750;2023-04-15T03:05:29;12.98;;;7.18;;
30635;SDS011;17400;52.392;9.750;2023-04-15T03:07:58;12.60;;;6.82;;
30635;SDS011;17400;52.392;9.750;2023-04-15T03:10:26;14.45;;;8.55;;
30635;SDS011;17400;52.392;9.750;2023-04-15T03:12:54;14.80;;;7.88;;
30635;SDS011;17400;52.392;9.750;2023-04-15T03:15:22;13.68;;;8.38;;
30635;SDS011;17400;52.392;9.750;2023-04-15T03:17:49;15.43;;;7.85;;
30635;SDS011;17400;52.392;9.750;2023-04-15T03:20:17;13.15;;;8.10;;
30635;SDS011;17400;52.392;9.750;2023-04-15T03:22:45;15.25;;;8.20;;
30635;SDS011;17400;52.392;9.750;2023-04-15T03:25:14;14.95;;;7.55;;
30635;SDS011;17400;52.392;9.750;2023-04-15T03:27:42;12.50;;;7.40;;
30635;SDS011;17400;52.392;9.750;2023-04-15T03:30:10;16.80;;;8.32;;
30635;SDS011;17400;52.392;9.750;2023-04-15T03:32:38;15.25;;;7.97;;
30635;SDS011;17400;52.392;9.750;2023-04-15T03:35:06;16.48;;;7.97;;
30635;SDS011;17400;52.392;9.750;2023-04-15T03:37:34;12.85;;;7.07;;
30635;SDS011;17400;52.392;9.750;2023-04-15T03:40:02;15.20;;;7.65;;
30635;SDS011;17400;52.392;9.750;2023-04-15T03:42:32;17.02;;;8.93;;
30635;SDS011;17400;52.392;9.750;2023-04-15T03:44:59;17.85;;;8.85;;
30635;SDS011;17400;52.392;9.750;2023-04-15T03:47:27;17.23;;;8.65;;
30635;SDS011;17400;52.392;9.750;2023-04-15T03:49:55;16.85;;;8.88;;
30635;SDS011;17400;52.392;9.750;2023-04-15T03:52:23;14.82;;;8.93;;
30635;SDS011;17400;52.392;9.750;2023-04-15T03:54:50;17.42;;;8.68;;
30635;SDS011;17400;52.392;9.750;2023-04-15T03:57:18;16.30;;;8.60;;
30635;SDS011;17400;52.392;9.750;2023-04-15T03:59:47;18.67;;;9.65;;
30635;SDS011;17400;52.392;9.750;2023-04-15T04:02:15;17.70;;;8.68;;
30635;SDS011;17400;52.392;9.750;2023-04-15T04:04:43;16.05;;;9.02;;
30635;SDS011;17400;52.392;9.750;2023-04-15T04:07:13;16.35;;;9.35;;
30635;SDS011;17400;52.392;9.750;2023-04-15T04:09:42;17.98;;;9.65;;
30635;SDS011;17400;52.392;9.750;2023-04-15T04:12:12;17.48;;;8.48;;
30635;SDS011;17400;52.392;9.750;2023-04-15T04:14:40;16.05;;;8.85;;
30635;SDS011;17400;52.392;9.750;2023-04-15T04:17:09;14.90;;;9.05;;
30635;SDS011;17400;52.392;9.750;2023-04-15T04:19:37;18.90;;;9.07;;
30635;SDS011;17400;52.392;9.750;2023-04-15T04:22:05;19.02;;;9.60;;
30635;SDS011;17400;52.392;9.750;2023-04-15T04:24:32;15.93;;;9.05;;
30635;SDS011;17400;52.392;9.750;2023-04-15T04:27:00;16.05;;;8.93;;
30635;SDS011;17400;52.392;9.750;2023-04-15T04:29:28;16.17;;;8.57;;
30635;SDS011;17400;52.392;9.750;2023-04-15T04:31:57;17.92;;;10.57;;
30635;SDS011;17400;52.392;9.750;2023-04-15T04:34:26;15.30;;;8.43;;
30635;SDS011;17400;52.392;9.750;2023-04-15T04:36:54;16.70;;;8.48;;
30635;SDS011;17400;52.392;9.750;2023-04-15T04:39:22;15.05;;;8.43;;
30635;SDS011;17400;52.392;9.750;2023-04-15T04:41:50;18.70;;;8.80;;
30635;SDS011;17400;52.392;9.750;2023-04-15T04:44:18;15.80;;;8.73;;
30635;SDS011;17400;52.392;9.750;2023-04-15T04:46:46;16.40;;;8.25;;
30635;SDS011;17400;52.392;9.750;2023-04-15T04:49:15;17.42;;;8.95;;
30635;SDS011;17400;52.392;9.750;2023-04-15T04:51:44;17.13;;;10.25;;
30635;SDS011;17400;52.392;9.750;2023-04-15T04:54:13;22.92;;;10.77;;
30635;SDS011;17400;52.392;9.750;2023-04-15T04:56:41;17.48;;;9.73;;
30635;SDS011;17400;52.392;9.750;2023-04-15T04:59:09;16.13;;;10.05;;
30635;SDS011;17400;52.392;9.750;2023-04-15T05:01:37;15.57;;;8.68;;
30635;SDS011;17400;52.392;9.750;2023-04-15T05:04:05;19.23;;;9.73;;
30635;SDS011;17400;52.392;9.750;2023-04-15T05:06:33;19.55;;;10.15;;
30635;SDS011;17400;52.392;9.750;2023-04-15T05:09:03;18.63;;;9.65;;
30635;SDS011;17400;52.392;9.750;2023-04-15T05:11:31;17.60;;;9.90;;
30635;SDS011;17400;52.392;9.750;2023-04-15T05:13:59;16.48;;;9.00;;
30635;SDS011;17400;52.392;9.750;2023-04-15T05:16:27;15.77;;;8.93;;
30635;SDS011;17400;52.392;9.750;2023-04-15T05:18:55;20.55;;;10.35;;
30635;SDS011;17400;52.392;9.750;2023-04-15T05:21:23;16.98;;;8.82;;
30635;SDS011;17400;52.392;9.750;2023-04-15T05:23:51;15.88;;;8.43;;
30635;SDS011;17400;52.392;9.750;2023-04-15T05:26:20;17.25;;;9.30;;
30635;SDS011;17400;52.392;9.750;2023-04-15T05:28:48;16.33;;;9.48;;
30635;SDS011;17400;52.392;9.750;2023-04-15T05:31:16;14.88;;;7.72;;
30635;SDS011;17400;52.392;9.750;2023-04-15T05:33:44;14.88;;;8.63;;
30635;SDS011;17400;52.392;9.750;2023-04-15T05:36:13;16.55;;;8.48;;
30635;SDS011;17400;52.392;9.750;2023-04-15T05:38:41;16.40;;;7.88;;
30635;SDS011;17400;52.392;9.750;2023-04-15T05:41:08;17.20;;;9.18;;
30635;SDS011;17400;52.392;9.750;2023-04-15T05:43:38;14.20;;;8.43;;
30635;SDS011;17400;52.392;9.750;2023-04-15T05:46:06;17.52;;;8.73;;
30635;SDS011;17400;52.392;9.750;2023-04-15T05:48:34;16.42;;;8.02;;
30635;SDS011;17400;52.392;9.750;2023-04-15T05:51:02;15.73;;;8.75;;
30635;SDS011;17400;52.392;9.750;2023-04-15T05:53:31;13.75;;;7.85;;
30635;SDS011;17400;52.392;9.750;2023-04-15T05:55:59;14.85;;;8.52;;
30635;SDS011;17400;52.392;9.750;2023-04-15T05:58:26;13.73;;;7.88;;
30635;SDS011;17400;52.392;9.750;2023-04-15T06:00:56;14.80;;;8.93;;
30635;SDS011;17400;52.392;9.750;2023-04-15T06:03:24;13.35;;;7.10;;
30635;SDS011;17400;52.392;9.750;2023-04-15T06:05:52;14.75;;;7.95;;
30635;SDS011;17400;52.392;9.750;2023-04-15T06:08:20;14.52;;;7.40;;
30635;SDS011;17400;52.392;9.750;2023-04-15T06:10:48;15.25;;;7.43;;
30635;SDS011;17400;52.392;9.750;2023-04-15T06:13:16;15.48;;;8.43;;
30635;SDS011;17400;52.392;9.750;2023-04-15T06:15:44;14.05;;;8.48;;
30635;SDS011;17400;52.392;9.750;2023-04-15T06:18:16;13.35;;;7.40;;
30635;SDS011;17400;52.392;9.750;2023-04-15T06:20:45;11.30;;;6.68;;
30635;SDS011;17400;52.392;9.750;2023-04-15T06:23:13;12.10;;;6.75;;
30635;SDS011;17400;52.392;9.750;2023-04-15T06:25:46;14.13;;;7.28;;
30635;SDS011;17400;52.392;9.750;2023-04-15T06:28:14;11.02;;;6.32;;
30635;SDS011;17400;52.392;9.750;2023-04-15T06:30:42;12.50;;;6.32;;
30635;SDS011;17400;52.392;9.750;2023-04-15T06:33:10;12.18;;;6.78;;
30635;SDS011;17400;52.392;9.750;2023-04-15T06:35:40;10.38;;;5.82;;
30635;SDS011;17400;52.392;9.750;2023-04-15T06:38:07;10.68;;;5.40;;
30635;SDS011;17400;52.392;9.750;2023-04-15T06:40:35;10.02;;;5.70;;
30635;SDS011;17400;52.392;9.750;2023-04-15T06:43:03;11.50;;;5.93;;
30635;SDS011;17400;52.392;9.750;2023-04-15T06:45:33;11.98;;;6.47;;
30635;SDS011;17400;52.392;9.750;2023-04-15T06:48:01;12.32;;;6.40;;
30635;SDS011;17400;52.392;9.750;2023-04-15T06:50:29;9.93;;;6.05;;
30635;SDS011;17400;52.392;9.750;2023-04-15T06:52:58;8.60;;;5.05;;
30635;SDS011;17400;52.392;9.750;2023-04-15T06:55:26;8.93;;;5.07;;
30635;SDS011;17400;52.392;9.750;2023-04-15T06:57:53;8.85;;;5.03;;
30635;SDS011;17400;52.392;9.750;2023-04-15T07:00:21;11.00;;;5.30;;
30635;SDS011;17400;52.392;9.750;2023-04-15T07:02:49;9.13;;;4.78;;
30635;SDS011;17400;52.392;9.750;2023-04-15T07:05:18;11.93;;;5.40;;
30635;SDS011;17400;52.392;9.750;2023-04-15T07:07:47;8.13;;;4.88;;
30635;SDS011;17400;52.392;9.750;2023-04-15T07:10:16;8.65;;;4.63;;
30635;SDS011;17400;52.392;9.750;2023-04-15T07:12:44;9.98;;;4.97;;
30635;SDS011;17400;52.392;9.750;2023-04-15T07:15:12;8.75;;;4.28;;
30635;SDS011;17400;52.392;9.750;2023-04-15T07:17:40;8.80;;;3.97;;
30635;SDS011;17400;52.392;9.750;2023-04-15T07:20:09;7.22;;;4.30;;
30635;SDS011;17400;52.392;9.750;2023-04-15T07:22:38;8.43;;;4.57;;
30635;SDS011;17400;52.392;9.750;2023-04-15T07:25:06;7.22;;;4.30;;
30635;SDS011;17400;52.392;9.750;2023-04-15T07:27:36;7.20;;;4.10;;
30635;SDS011;17400;52.392;9.750;2023-04-15T07:30:05;7.70;;;3.40;;
30635;SDS011;17400;52.392;9.750;2023-04-15T07:32:34;8.23;;;4.25;;
30635;SDS011;17400;52.392;9.750;2023-04-15T07:35:03;7.63;;;3.17;;
30635;SDS011;17400;52.392;9.750;2023-04-15T07:37:31;5.05;;;2.75;;
30635;SDS011;17400;52.392;9.750;2023-04-15T07:39:58;6.15;;;3.15;;
30635;SDS011;17400;52.392;9.750;2023-04-15T07:42:27;6.97;;;3.30;;
30635;SDS011;17400;52.392;9.750;2023-04-15T07:44:56;6.13;;;3.15;;
30635;SDS011;17400;52.392;9.750;2023-04-15T07:47:24;5.63;;;3.08;;
30635;SDS011;17400;52.392;9.750;2023-04-15T07:49:52;5.60;;;2.97;;
30635;SDS011;17400;52.392;9.750;2023-04-15T07:52:21;9.15;;;5.63;;
30635;SDS011;17400;52.392;9.750;2023-04-15T07:54:49;10.93;;;8.15;;
30635;SDS011;17400;52.392;9.750;2023-04-15T07:57:17;8.68;;;5.68;;
30635;SDS011;17400;52.392;9.750;2023-04-15T07:59:46;7.75;;;4.47;;
30635;SDS011;17400;52.392;9.750;2023-04-15T08:02:17;6.53;;;4.03;;
30635;SDS011;17400;52.392;9.750;2023-04-15T08:04:49;11.95;;;8.15;;
30635;SDS011;17400;52.392;9.750;2023-04-15T08:07:17;10.43;;;7.97;;
30635;SDS011;17400;52.392;9.750;2023-04-15T08:09:45;6.22;;;4.43;;
30635;SDS011;17400;52.392;9.750;2023-04-15T08:12:13;6.15;;;3.60;;
30635;SDS011;17400;52.392;9.750;2023-04-15T08:14:41;4.80;;;2.83;;
30635;SDS011;17400;52.392;9.750;2023-04-15T08:17:09;4.53;;;2.67;;
30635;SDS011;17400;52.392;9.750;2023-04-15T08:19:40;4.25;;;2.72;;
30635;SDS011;17400;52.392;9.750;2023-04-15T08:22:08;5.28;;;2.53;;
30635;SDS011;17400;52.392;9.750;2023-04-15T08:24:43;5.38;;;2.90;;
30635;SDS011;17400;52.392;9.750;2023-04-15T08:27:12;6.20;;;3.75;;
30635;SDS011;17400;52.392;9.750;2023-04-15T08:29:41;5.07;;;3.30;;
30635;SDS011;17400;52.392;9.750;2023-04-15T08:32:10;3.85;;;2.13;;
30635;SDS011;17400;52.392;9.750;2023-04-15T08:34:38;4.97;;;2.60;;
30635;SDS011;17400;52.392;9.750;2023-04-15T08:37:10;4.57;;;2.17;;
30635;SDS011;17400;52.392;9.750;2023-04-15T08:39:38;5.47;;;3.25;;
30635;SDS011;17400;52.392;9.750;2023-04-15T08:42:07;5.80;;;2.92;;
30635;SDS011;17400;52.392;9.750;2023-04-15T08:44:38;6.07;;;2.80;;
30635;SDS011;17400;52.392;9.750;2023-04-15T08:47:08;4.88;;;3.17;;
30635;SDS011;17400;52.392;9.750;2023-04-15T08:49:40;4.35;;;2.70;;
30635;SDS011;17400;52.392;9.750;2023-04-15T08:52:10;4.72;;;2.28;;
30635;SDS011;17400;52.392;9.750;2023-04-15T08:54:38;3.85;;;2.50;;
30635;SDS011;17400;52.392;9.750;2023-04-15T08:57:07;4.65;;;2.42;;
30635;SDS011;17400;52.392;9.750;2023-04-15T08:59:35;4.32;;;2.15;;
30635;SDS011;17400;52.392;9.750;2023-04-15T09:02:03;5.15;;;2.58;;
30635;SDS011;17400;52.392;9.750;2023-04-15T09:04:31;4.65;;;2.47;;
30635;SDS011;17400;52.392;9.750;2023-04-15T09:06:59;5.55;;;2.97;;
30635;SDS011;17400;52.392;9.750;2023-04-15T09:09:28;6.47;;;4.07;;
30635;SDS011;17400;52.392;9.750;2023-04-15T09:11:56;4.20;;;2.60;;
30635;SDS011;17400;52.392;9.750;2023-04-15T09:14:24;7.45;;;2.92;;
30635;SDS011;17400;52.392;9.750;2023-04-15T09:16:55;5.90;;;3.03;;
30635;SDS011;17400;52.392;9.750;2023-04-15T09:19:23;3.90;;;2.30;;
30635;SDS011;17400;52.392;9.750;2023-04-15T09:21:52;4.47;;;3.30;;
30635;SDS011;17400;52.392;9.750;2023-04-15T09:24:24;7.15;;;4.70;;
30635;SDS011;17400;52.392;9.750;2023-04-15T09:27:01;6.60;;;3.65;;
30635;SDS011;17400;52.392;9.750;2023-04-15T09:29:32;6.10;;;2.97;;
30635;SDS011;17400;52.392;9.750;2023-04-15T09:32:09;5.07;;;3.00;;
30635;SDS011;17400;52.392;9.750;2023-04-15T09:34:39;5.30;;;2.97;;
30635;SDS011;17400;52.392;9.750;2023-04-15T09:37:07;4.90;;;3.30;;
30635;SDS011;17400;52.392;9.750;2023-04-15T09:39:46;4.65;;;3.17;;
30635;SDS011;17400;52.392;9.750;2023-04-15T09:42:16;5.32;;;3.10;;
30635;SDS011;17400;52.392;9.750;2023-04-15T09:44:51;6.18;;;3.90;;
30635;SDS011;17400;52.392;9.750;2023-04-15T09:47:28;7.00;;;3.33;;
30635;SDS011;17400;52.392;9.750;2023-04-15T09:49:58;7.95;;;3.90;;
30635;SDS011;17400;52.392;9.750;2023-04-15T09:52:27;7.05;;;4.00;;
30635;SDS011;17400;52.392;9.750;2023-04-15T09:54:56;6.65;;;3.85;;
30635;SDS011;17400;52.392;9.750;2023-04-15T09:57:33;7.03;;;3.88;;
30635;SDS011;17400;52.392;9.750;2023-04-15T10:00:02;7.57;;;4.30;;
30635;SDS011;17400;52.392;9.750;2023-04-15T10:02:32;10.02;;;4.75;;
30635;SDS011;17400;52.392;9.750;2023-04-15T10:05:02;7.72;;;3.10;;
30635;SDS011;17400;52.392;9.750;2023-04-15T10:07:31;7.13;;;4.35;;
30635;SDS011;17400;52.392;9.750;2023-04-15T10:10:00;7.30;;;3.97;;
30635;SDS011;17400;52.392;9.750;2023-04-15T10:12:34;11.05;;;4.65;;
30635;SDS011;17400;52.392;9.750;2023-04-15T10:15:04;8.85;;;4.90;;
30635;SDS011;17400;52.392;9.750;2023-04-15T10:17:33;8.85;;;4.90;;
30635;SDS011;17400;52.392;9.750;2023-04-15T10:20:03;12.07;;;5.65;;
30635;SDS011;17400;52.392;9.750;2023-04-15T10:22:32;11.10;;;6.00;;
30635;SDS011;17400;52.392;9.750;2023-04-15T10:25:02;14.52;;;6.70;;
30635;SDS011;17400;52.392;9.750;2023-04-15T10:27:32;13.25;;;6.10;;
30635;SDS011;17400;52.392;9.750;2023-04-15T10:30:02;10.65;;;6.68;;
30635;SDS011;17400;52.392;9.750;2023-04-15T10:32:32;13.40;;;6.60;;
30635;SDS011;17400;52.392;9.750;2023-04-15T10:35:00;14.73;;;6.57;;
30635;SDS011;17400;52.392;9.750;2023-04-15T10:37:33;13.20;;;6.72;;
30635;SDS011;17400;52.392;9.750;2023-04-15T10:42:53;15.70;;;7.85;;
30635;SDS011;17400;52.392;9.750;2023-04-15T10:45:26;13.88;;;7.22;;
30635;SDS011;17400;52.392;9.750;2023-04-15T10:47:55;17.40;;;8.52;;
30635;SDS011;17400;52.392;9.750;2023-04-15T10:50:29;17.58;;;7.20;;
30635;SDS011;17400;52.392;9.750;2023-04-15T10:53:01;21.02;;;10.00;;
30635;SDS011;17400;52.392;9.750;2023-04-15T10:55:31;18.02;;;8.15;;
30635;SDS011;17400;52.392;9.750;2023-04-15T10:58:00;17.65;;;9.20;;
30635;SDS011;17400;52.392;9.750;2023-04-15T11:00:30;18.63;;;9.63;;
30635;SDS011;17400;52.392;9.750;2023-04-15T11:03:04;21.23;;;11.05;;
30635;SDS011;17400;52.392;9.750;2023-04-15T11:05:49;19.77;;;9.50;;
30635;SDS011;17400;52.392;9.750;2023-04-15T11:08:18;22.05;;;11.32;;
30635;SDS011;17400;52.392;9.750;2023-04-15T11:10:50;26.77;;;12.40;;
30635;SDS011;17400;52.392;9.750;2023-04-15T11:13:26;24.23;;;12.95;;
30635;SDS011;17400;52.392;9.750;2023-04-15T11:15:58;24.52;;;11.18;;
30635;SDS011;17400;52.392;9.750;2023-04-15T11:18:31;26.38;;;12.00;;
30635;SDS011;17400;52.392;9.750;2023-04-15T11:21:04;30.42;;;13.55;;
30635;SDS011;17400;52.392;9.750;2023-04-15T11:23:34;23.58;;;11.77;;
30635;SDS011;17400;52.392;9.750;2023-04-15T11:26:05;25.27;;;12.23;;
30635;SDS011;17400;52.392;9.750;2023-04-15T11:28:37;26.35;;;12.60;;
30635;SDS011;17400;52.392;9.750;2023-04-15T11:31:08;25.33;;;12.40;;
30635;SDS011;17400;52.392;9.750;2023-04-15T11:33:38;25.52;;;12.82;;
30635;SDS011;17400;52.392;9.750;2023-04-15T11:36:12;28.65;;;13.23;;
30635;SDS011;17400;52.392;9.750;2023-04-15T11:38:43;30.25;;;15.70;;
30635;SDS011;17400;52.392;9.750;2023-04-15T11:41:14;31.38;;;14.35;;
30635;SDS011;17400;52.392;9.750;2023-04-15T11:43:48;29.95;;;13.63;;
30635;SDS011;17400;52.392;9.750;2023-04-15T11:46:17;31.25;;;15.10;;
30635;SDS011;17400;52.392;9.750;2023-04-15T11:48:45;26.52;;;13.25;;
30635;SDS011;17400;52.392;9.750;2023-04-15T11:51:13;29.65;;;15.77;;
30635;SDS011;17400;52.392;9.750;2023-04-15T11:53:41;28.80;;;14.43;;
30635;SDS011;17400;52.392;9.750;2023-04-15T11:56:15;27.45;;;13.23;;
30635;SDS011;17400;52.392;9.750;2023-04-15T11:58:45;30.65;;;13.52;;
30635;SDS011;17400;52.392;9.750;2023-04-15T12:01:13;32.53;;;14.80;;
30635;SDS011;17400;52.392;9.750;2023-04-15T12:03:43;34.90;;;17.40;;
30635;SDS011;17400;52.392;9.750;2023-04-15T12:06:14;31.00;;;14.48;;
30635;SDS011;17400;52.392;9.750;2023-04-15T12:08:51;25.40;;;13.63;;
30635;SDS011;17400;52.392;9.750;2023-04-15T12:11:27;35.33;;;15.35;;
30635;SDS011;17400;52.392;9.750;2023-04-15T12:13:57;36.55;;;17.52;;
30635;SDS011;17400;52.392;9.750;2023-04-15T12:16:26;34.42;;;15.80;;
30635;SDS011;17400;52.392;9.750;2023-04-15T12:18:56;30.55;;;15.30;;
30635;SDS011;17400;52.392;9.750;2023-04-15T12:21:26;37.08;;;17.40;;
30635;SDS011;17400;52.392;9.750;2023-04-15T12:24:00;34.55;;;15.02;;
30635;SDS011;17400;52.392;9.750;2023-04-15T12:26:30;34.83;;;17.55;;
30635;SDS011;17400;52.392;9.750;2023-04-15T12:29:02;35.05;;;17.48;;
30635;SDS011;17400;52.392;9.750;2023-04-15T12:31:32;41.30;;;18.50;;
30635;SDS011;17400;52.392;9.750;2023-04-15T12:34:02;37.38;;;18.40;;
30635;SDS011;17400;52.392;9.750;2023-04-15T12:36:34;37.78;;;16.75;;
30635;SDS011;17400;52.392;9.750;2023-04-15T12:39:02;37.13;;;17.67;;
30635;SDS011;17400;52.392;9.750;2023-04-15T12:41:31;40.42;;;19.70;;
30635;SDS011;17400;52.392;9.750;2023-04-15T12:43:59;41.80;;;19.60;;
30635;SDS011;17400;52.392;9.750;2023-04-15T12:46:28;43.17;;;18.08;;
30635;SDS011;17400;52.392;9.750;2023-04-15T12:48:56;43.35;;;17.88;;
30635;SDS011;17400;52.392;9.750;2023-04-15T12:51:25;41.25;;;19.33;;
30635;SDS011;17400;52.392;9.750;2023-04-15T12:53:53;36.30;;;19.02;;
30635;SDS011;17400;52.392;9.750;2023-04-15T12:56:21;40.55;;;20.95;;
30635;SDS011;17400;52.392;9.750;2023-04-15T12:58:49;33.33;;;18.30;;
30635;SDS011;17400;52.392;9.750;2023-04-15T13:01:17;39.45;;;17.88;;
30635;SDS011;17400;52.392;9.750;2023-04-15T13:03:45;37.65;;;18.17;;
30635;SDS011;17400;52.392;9.750;2023-04-15T13:06:13;36.13;;;17.08;;
30635;SDS011;17400;52.392;9.750;2023-04-15T13:08:42;41.00;;;19.35;;
30635;SDS011;17400;52.392;9.750;2023-04-15T13:11:23;42.80;;;19.95;;
30635;SDS011;17400;52.392;9.750;2023-04-15T13:13:51;36.55;;;19.50;;
30635;SDS011;17400;52.392;9.750;2023-04-15T13:16:21;30.98;;;17.83;;
30635;SDS011;17400;52.392;9.750;2023-04-15T13:18:50;37.30;;;19.27;;
30635;SDS011;17400;52.392;9.750;2023-04-15T13:21:18;38.88;;;18.45;;
30635;SDS011;17400;52.392;9.750;2023-04-15T13:23:48;39.33;;;18.48;;
30635;SDS011;17400;52.392;9.750;2023-04-15T13:26:16;36.30;;;18.65;;
30635;SDS011;17400;52.392;9.750;2023-04-15T13:28:45;38.47;;;19.13;;
30635;SDS011;17400;52.392;9.750;2023-04-15T13:31:13;36.85;;;19.85;;
30635;SDS011;17400;52.392;9.750;2023-04-15T13:33:42;28.70;;;17.35;;
30635;SDS011;17400;52.392;9.750;2023-04-15T13:36:09;32.25;;;16.63;;
30635;SDS011;17400;52.392;9.750;2023-04-15T13:38:37;30.08;;;17.17;;
30635;SDS011;17400;52.392;9.750;2023-04-15T13:41:06;37.05;;;16.95;;
30635;SDS011;17400;52.392;9.750;2023-04-15T13:43:34;31.10;;;16.05;;
30635;SDS011;17400;52.392;9.750;2023-04-15T13:46:02;32.10;;;16.30;;
30635;SDS011;17400;52.392;9.750;2023-04-15T13:48:31;29.52;;;14.98;;
30635;SDS011;17400;52.392;9.750;2023-04-15T13:50:59;31.27;;;15.45;;
30635;SDS011;17400;52.392;9.750;2023-04-15T13:53:27;30.05;;;16.27;;
30635;SDS011;17400;52.392;9.750;2023-04-15T13:56:05;28.58;;;15.30;;
30635;SDS011;17400;52.392;9.750;2023-04-15T13:58:34;29.07;;;16.80;;
30635;SDS011;17400;52.392;9.750;2023-04-15T14:01:03;24.83;;;14.90;;
30635;SDS011;17400;52.392;9.750;2023-04-15T14:03:33;28.05;;;15.60;;
30635;SDS011;17400;52.392;9.750;2023-04-15T14:06:01;27.10;;;15.82;;
30635;SDS011;17400;52.392;9.750;2023-04-15T14:08:29;25.02;;;14.05;;
30635;SDS011;17400;52.392;9.750;2023-04-15T14:10:57;30.45;;;15.93;;
30635;SDS011;17400;52.392;9.750;2023-04-15T14:13:26;26.17;;;14.55;;
30635;SDS011;17400;52.392;9.750;2023-04-15T14:15:55;23.65;;;13.88;;
30635;SDS011;17400;52.392;9.750;2023-04-15T14:18:23;24.90;;;14.10;;
30635;SDS011;17400;52.392;9.750;2023-04-15T14:20:51;24.98;;;15.00;;
30635;SDS011;17400;52.392;9.750;2023-04-15T14:23:19;21.33;;;12.32;;
30635;SDS011;17400;52.392;9.750;2023-04-15T14:25:46;22.50;;;13.52;;
30635;SDS011;17400;52.392;9.750;2023-04-15T14:28:14;23.65;;;12.57;;
30635;SDS011;17400;52.392;9.750;2023-04-15T14:30:44;20.08;;;12.35;;
30635;SDS011;17400;52.392;9.750;2023-04-15T14:33:12;23.88;;;14.80;;
30635;SDS011;17400;52.392;9.750;2023-04-15T14:35:39;23.92;;;12.70;;
30635;SDS011;17400;52.392;9.750;2023-04-15T14:38:07;20.85;;;12.82;;
30635;SDS011;17400;52.392;9.750;2023-04-15T14:40:37;20.15;;;12.68;;
30635;SDS011;17400;52.392;9.750;2023-04-15T14:43:04;21.95;;;13.00;;
30635;SDS011;17400;52.392;9.750;2023-04-15T14:45:33;21.27;;;13.05;;
30635;SDS011;17400;52.392;9.750;2023-04-15T14:48:10;25.08;;;14.32;;
30635;SDS011;17400;52.392;9.750;2023-04-15T14:50:38;22.00;;;12.60;;